createdAt,value
2023-05-14T00:01:43.234Z,9.50
2023-05-14T00:04:10.638Z,10.70
2023-05-14T00:06:37.677Z,12.60
2023-05-14T00:09:06.346Z,12.10
2023-05-14T00:11:33.547Z,13.30
2023-05-14T00:14:00.694Z,11.80
2023-05-14T00:16:27.911Z,17.00
2023-05-14T00:18:55.112Z,10.50
2023-05-14T00:21:22.347Z,12.50
2023-05-14T00:23:49.495Z,14.90
2023-05-14T00:26:16.626Z,8.60
2023-05-14T00:28:44.463Z,11.00
2023-05-14T00:31:11.674Z,11.70
2023-05-14T00:33:38.727Z,14.20
2023-05-14T00:36:06.324Z,20.00
2023-05-14T00:38:33.479Z,19.20
2023-05-14T00:41:00.732Z,10.30
2023-05-14T00:43:28.073Z,10.20
2023-05-14T00:45:56.024Z,11.30
2023-05-14T00:48:23.932Z,10.70
2023-05-14T00:50:52.081Z,10.30
2023-05-14T00:53:20.740Z,9.00
2023-05-14T00:55:49.445Z,18.90
2023-05-14T00:58:18.280Z,16.30
2023-05-14T01:00:45.938Z,18.40
2023-05-14T01:03:13.269Z,14.60
2023-05-14T01:06:01.134Z,11.90
2023-05-14T01:09:06.736Z,10.20
2023-05-14T01:11:48.452Z,17.10
2023-05-14T01:14:28.430Z,8.60
2023-05-14T01:16:58.904Z,11.90
2023-05-14T01:19:43.358Z,12.80
2023-05-14T01:22:11.850Z,13.20
2023-05-14T01:24:39.250Z,15.30
2023-05-14T01:27:37.514Z,92.50
2023-05-14T01:30:33.781Z,156.90
2023-05-14T01:33:03.761Z,121.90
2023-05-14T01:35:31.364Z,70.40
2023-05-14T01:38:03.696Z,53.70
2023-05-14T01:40:33.042Z,27.10
2023-05-14T01:43:01.132Z,28.00
2023-05-14T01:45:28.338Z,36.90
2023-05-14T01:47:55.440Z,29.30
2023-05-14T01:50:23.103Z,50.70
2023-05-14T01:52:53.375Z,31.10
2023-05-14T01:55:21.288Z,37.70
2023-05-14T01:57:48.524Z,29.00
2023-05-14T02:00:15.957Z,18.40
2023-05-14T02:02:43.057Z,18.80
2023-05-14T02:05:12.364Z,15.50
2023-05-14T02:07:39.748Z,10.30
2023-05-14T02:10:07.783Z,12.90
2023-05-14T02:12:35.032Z,9.60
2023-05-14T02:15:03.815Z,10.90
2023-05-14T02:17:30.956Z,9.30
2023-05-14T02:19:58.431Z,12.20
2023-05-14T02:22:25.919Z,15.40
2023-05-14T02:24:52.998Z,9.40
2023-05-14T02:27:20.229Z,13.20
2023-05-14T02:29:48.317Z,10.40
2023-05-14T02:32:15.456Z,14.40
2023-05-14T02:34:42.659Z,25.00
2023-05-14T02:37:09.848Z,23.10
2023-05-14T02:39:37.561Z,19.10
2023-05-14T02:42:05.017Z,22.80
2023-05-14T02:44:32.504Z,20.30
2023-05-14T02:46:59.722Z,23.50
2023-05-14T02:49:26.901Z,24.00
2023-05-14T02:51:54.557Z,21.40
2023-05-14T02:54:21.624Z,27.60
2023-05-14T02:56:48.863Z,17.60
2023-05-14T02:59:16.080Z,22.20
2023-05-14T03:01:43.662Z,13.80
2023-05-14T03:04:11.674Z,17.80
2023-05-14T03:06:38.874Z,17.10
2023-05-14T03:09:06.210Z,19.60
2023-05-14T03:11:33.826Z,22.70
2023-05-14T03:14:01.326Z,14.60
2023-05-14T03:16:28.469Z,13.30
2023-05-14T03:18:55.657Z,12.60
2023-05-14T03:21:22.914Z,8.80
2023-05-14T03:23:50.070Z,10.00
2023-05-14T03:26:19.031Z,10.90
2023-05-14T03:28:46.101Z,10.80
2023-05-14T03:31:13.228Z,8.10
2023-05-14T03:33:40.934Z,8.80
2023-05-14T03:36:08.228Z,12.60
2023-05-14T03:38:35.465Z,8.20
2023-05-14T03:41:02.669Z,9.00
2023-05-14T03:43:29.991Z,8.40
2023-05-14T03:45:57.071Z,11.50
2023-05-14T03:48:24.462Z,17.30
2023-05-14T03:50:51.733Z,9.50
2023-05-14T03:53:18.837Z,10.80
2023-05-14T03:55:46.340Z,9.00
2023-05-14T03:58:14.614Z,11.50
2023-05-14T04:00:42.591Z,14.20
2023-05-14T04:03:11.385Z,7.30
2023-05-14T04:05:38.895Z,9.50
2023-05-14T04:08:06.589Z,6.00
2023-05-14T04:10:33.806Z,7.10
2023-05-14T04:13:01.080Z,9.00
2023-05-14T04:15:32.451Z,14.70
2023-05-14T04:17:59.761Z,11.70
2023-05-14T04:20:28.132Z,9.90
2023-05-14T04:22:55.778Z,12.20
2023-05-14T04:25:23.034Z,10.80
2023-05-14T04:27:50.167Z,15.80
2023-05-14T04:30:17.333Z,11.60
2023-05-14T04:32:44.571Z,7.70
2023-05-14T04:35:13.015Z,11.60
2023-05-14T04:37:40.622Z,7.90
2023-05-14T04:40:11.331Z,13.20
2023-05-14T04:42:38.996Z,9.80
2023-05-14T04:45:07.026Z,6.70
2023-05-14T04:47:34.352Z,13.00
2023-05-14T04:50:01.775Z,17.00
2023-05-14T04:52:28.984Z,12.70
2023-05-14T04:54:57.003Z,8.20
2023-05-14T04:57:24.222Z,11.00
2023-05-14T04:59:51.354Z,6.20
2023-05-14T05:02:18.597Z,5.60
2023-05-14T05:04:47.194Z,7.40
2023-05-14T05:07:14.721Z,5.40
2023-05-14T05:09:43.250Z,7.50
2023-05-14T05:12:10.632Z,14.60
2023-05-14T05:14:37.761Z,9.00
2023-05-14T05:17:05.300Z,9.70
2023-05-14T05:19:42.555Z,6.60
2023-05-14T05:22:11.200Z,5.00
2023-05-14T05:24:38.406Z,8.80
2023-05-14T05:27:06.185Z,9.90
2023-05-14T05:29:33.638Z,9.80
2023-05-14T05:32:01.112Z,8.30
2023-05-14T05:34:28.273Z,14.80
2023-05-14T05:36:55.400Z,6.90
2023-05-14T05:39:22.515Z,6.10
2023-05-14T05:41:49.689Z,10.30
2023-05-14T05:44:16.844Z,6.80
2023-05-14T05:46:43.887Z,6.70
2023-05-14T05:49:11.033Z,4.70
2023-05-14T05:51:38.085Z,12.00
2023-05-14T05:54:05.390Z,6.70
2023-05-14T05:56:32.573Z,7.90
2023-05-14T05:58:59.700Z,6.20
2023-05-14T06:01:26.936Z,7.60
2023-05-14T06:03:54.013Z,8.20
2023-05-14T06:06:21.965Z,5.90
2023-05-14T06:08:49.176Z,7.30
2023-05-14T06:11:17.122Z,6.80
2023-05-14T06:13:44.309Z,10.30
2023-05-14T06:16:11.603Z,7.70
2023-05-14T06:18:38.699Z,10.20
2023-05-14T06:21:06.049Z,11.70
2023-05-14T06:23:33.451Z,14.30
2023-05-14T06:26:00.601Z,25.40
2023-05-14T06:28:27.804Z,12.20
2023-05-14T06:30:55.027Z,13.80
2023-05-14T06:33:29.715Z,13.80
2023-05-14T06:36:01.111Z,14.40
2023-05-14T06:38:28.163Z,12.50
2023-05-14T06:40:55.325Z,10.80
2023-05-14T06:43:22.789Z,7.20
2023-05-14T06:45:51.045Z,13.30
2023-05-14T06:48:19.108Z,16.00
2023-05-14T06:50:47.766Z,16.00
2023-05-14T06:53:15.474Z,7.70
2023-05-14T06:55:42.669Z,7.30
2023-05-14T06:58:10.072Z,12.00
2023-05-14T07:00:37.182Z,5.80
2023-05-14T07:03:04.420Z,6.90
2023-05-14T07:05:31.776Z,7.70
2023-05-14T07:07:58.912Z,8.30
2023-05-14T07:10:26.464Z,4.50
2023-05-14T07:12:53.797Z,6.70
2023-05-14T07:15:21.264Z,12.60
2023-05-14T07:17:48.435Z,6.20
2023-05-14T07:20:15.654Z,12.50
2023-05-14T07:22:42.789Z,3.90
2023-05-14T07:25:10.189Z,4.40
2023-05-14T07:27:37.384Z,4.80
2023-05-14T07:30:04.736Z,3.40
2023-05-14T07:32:31.803Z,4.10
2023-05-14T07:34:59.062Z,3.70
2023-05-14T07:37:26.306Z,6.20
2023-05-14T07:39:53.881Z,5.40
2023-05-14T07:42:34.518Z,4.60
2023-05-14T07:45:04.163Z,7.40
2023-05-14T07:47:31.563Z,9.30
2023-05-14T07:49:59.314Z,9.20
2023-05-14T07:52:26.741Z,7.80
2023-05-14T07:54:53.899Z,11.10
2023-05-14T07:57:21.073Z,7.20
2023-05-14T07:59:48.798Z,3.30
2023-05-14T08:02:17.043Z,10.90
2023-05-14T08:04:45.038Z,19.40
2023-05-14T08:07:12.172Z,9.20
2023-05-14T08:09:39.307Z,15.70
2023-05-14T08:12:07.608Z,11.90
2023-05-14T08:14:34.727Z,5.30
2023-05-14T08:17:01.901Z,18.80
2023-05-14T08:19:29.075Z,8.10
2023-05-14T08:21:56.194Z,2.80
2023-05-14T08:24:23.308Z,16.10
2023-05-14T08:26:50.514Z,7.60
2023-05-14T08:29:17.664Z,14.40
2023-05-14T08:31:44.922Z,7.70
2023-05-14T08:34:12.100Z,8.00
2023-05-14T08:36:39.543Z,5.90
2023-05-14T08:39:09.813Z,12.40
2023-05-14T08:41:37.797Z,14.70
2023-05-14T08:44:04.947Z,11.30
2023-05-14T08:46:33.101Z,12.00
2023-05-14T08:49:15.033Z,8.20
2023-05-14T08:51:43.358Z,2.90
2023-05-14T08:54:14.661Z,9.70
2023-05-14T08:56:42.359Z,9.00
2023-05-14T08:59:09.482Z,5.90
2023-05-14T09:01:43.257Z,6.60
2023-05-14T09:04:11.716Z,7.40
2023-05-14T09:06:40.217Z,5.40
2023-05-14T09:09:07.334Z,7.20
2023-05-14T09:11:34.452Z,9.60
2023-05-14T09:14:01.786Z,15.80
2023-05-14T09:16:29.051Z,7.30
2023-05-14T09:18:56.361Z,9.20
2023-05-14T09:21:23.484Z,3.70
2023-05-14T09:23:57.082Z,10.70
2023-05-14T09:26:26.508Z,17.60
2023-05-14T09:28:57.508Z,6.70
2023-05-14T09:31:24.704Z,10.00
2023-05-14T09:33:52.218Z,4.60
2023-05-14T09:36:19.817Z,6.80
2023-05-14T09:38:47.041Z,6.20
2023-05-14T09:41:14.173Z,7.50
2023-05-14T09:43:41.293Z,9.70
2023-05-14T09:46:08.339Z,4.30
2023-05-14T09:48:35.793Z,3.20
2023-05-14T09:51:04.625Z,4.70
2023-05-14T09:53:34.429Z,10.00
2023-05-14T09:56:01.515Z,8.10
2023-05-14T09:58:29.759Z,5.50
2023-05-14T10:00:57.852Z,3.50
2023-05-14T10:03:28.103Z,3.70
2023-05-14T10:05:58.617Z,7.40
2023-05-14T10:08:36.260Z,15.50
2023-05-14T10:11:12.471Z,6.60
2023-05-14T10:13:50.422Z,4.20
2023-05-14T10:16:25.517Z,5.20
2023-05-14T10:19:00.953Z,6.00
2023-05-14T10:21:31.686Z,11.50
2023-05-14T10:23:58.882Z,7.40
2023-05-14T10:26:26.406Z,7.40
2023-05-14T10:28:53.781Z,5.80
2023-05-14T10:31:24.480Z,6.90
2023-05-14T10:33:51.826Z,3.10
2023-05-14T10:36:19.138Z,5.30
2023-05-14T10:38:47.282Z,7.70
2023-05-14T10:41:17.974Z,5.70
2023-05-14T10:43:45.260Z,7.90
2023-05-14T10:46:13.977Z,4.50
2023-05-14T10:48:43.481Z,3.70
2023-05-14T10:51:11.826Z,8.00
2023-05-14T10:53:43.368Z,8.70
2023-05-14T10:56:14.508Z,4.80
2023-05-14T10:58:45.881Z,5.60
2023-05-14T11:01:13.872Z,12.80
2023-05-14T11:03:46.413Z,5.90
2023-05-14T11:06:15.946Z,10.60
2023-05-14T11:08:44.678Z,8.20
2023-05-14T11:11:12.583Z,6.70
2023-05-14T11:13:39.692Z,7.10
2023-05-14T11:18:38.874Z,4.90
2023-05-14T11:21:06.241Z,8.50
2023-05-14T11:23:33.370Z,9.80
2023-05-14T11:26:00.529Z,6.80
2023-05-14T11:28:27.776Z,20.30
2023-05-14T11:30:54.970Z,33.20
2023-05-14T11:33:22.072Z,8.90
2023-05-14T11:35:49.321Z,9.50
2023-05-14T11:38:20.506Z,6.40
2023-05-14T11:40:55.476Z,5.20
2023-05-14T11:43:26.324Z,7.70
2023-05-14T11:45:54.379Z,4.80
2023-05-14T11:48:22.317Z,6.10
2023-05-14T11:50:51.180Z,11.40
2023-05-14T11:53:29.622Z,7.20
2023-05-14T11:56:00.339Z,8.60
2023-05-14T11:58:27.442Z,16.70
2023-05-14T12:00:55.941Z,11.30
2023-05-14T12:03:26.398Z,10.10
2023-05-14T12:06:02.237Z,7.60
2023-05-14T12:08:31.454Z,6.60
2023-05-14T12:11:00.475Z,6.50
2023-05-14T12:13:29.171Z,9.70
2023-05-14T12:15:58.072Z,7.80
2023-05-14T12:18:27.241Z,11.40
2023-05-14T12:20:55.023Z,37.30
2023-05-14T12:23:30.436Z,12.70
2023-05-14T12:26:06.624Z,11.30
2023-05-14T12:28:37.674Z,7.20
2023-05-14T12:31:05.769Z,4.10
2023-05-14T12:33:32.936Z,5.40
2023-05-14T12:36:17.469Z,7.20
2023-05-14T12:38:58.529Z,7.90
2023-05-14T12:41:25.680Z,4.40
2023-05-14T12:43:52.799Z,5.90
2023-05-14T12:46:19.983Z,5.80
2023-05-14T12:48:47.280Z,4.40
2023-05-14T12:51:15.022Z,10.00
2023-05-14T12:53:42.115Z,4.60
2023-05-14T12:56:09.555Z,3.90
2023-05-14T12:58:36.802Z,6.60
2023-05-14T13:01:05.555Z,10.10
2023-05-14T13:03:32.823Z,5.60
2023-05-14T13:05:59.983Z,4.00
2023-05-14T13:08:27.420Z,15.20
2023-05-14T13:10:55.510Z,7.70
2023-05-14T13:13:23.749Z,13.40
2023-05-14T13:15:53.032Z,7.40
2023-05-14T13:18:20.096Z,8.80
2023-05-14T13:20:47.686Z,8.00
2023-05-14T13:23:15.377Z,11.90
2023-05-14T13:25:42.525Z,9.00
2023-05-14T13:28:09.901Z,3.90
2023-05-14T13:30:36.954Z,7.80
2023-05-14T13:33:04.416Z,6.90
2023-05-14T13:35:31.640Z,6.60
2023-05-14T13:37:58.790Z,5.00
2023-05-14T13:40:26.171Z,5.40
2023-05-14T13:42:53.321Z,5.60
2023-05-14T13:45:20.433Z,9.60
2023-05-14T13:47:49.373Z,15.70
2023-05-14T13:50:16.662Z,8.70
2023-05-14T13:52:43.801Z,7.80
2023-05-14T13:55:10.989Z,6.60
2023-05-14T13:57:39.905Z,6.60
2023-05-14T14:00:09.636Z,5.70
2023-05-14T14:02:36.844Z,4.80
2023-05-14T14:05:05.462Z,7.70
2023-05-14T14:07:32.567Z,5.40
2023-05-14T14:10:01.656Z,7.30
2023-05-14T14:12:28.828Z,6.00
2023-05-14T14:14:55.926Z,6.70
2023-05-14T14:17:23.115Z,7.60
2023-05-14T14:19:50.288Z,8.90
2023-05-14T14:22:17.683Z,17.10
2023-05-14T14:24:44.862Z,4.90
2023-05-14T14:27:12.094Z,8.20
2023-05-14T14:29:39.206Z,4.60
2023-05-14T14:32:06.777Z,13.00
2023-05-14T14:34:33.985Z,11.90
2023-05-14T14:37:01.116Z,5.90
2023-05-14T14:39:28.384Z,6.60
2023-05-14T14:41:55.592Z,2.60
2023-05-14T14:44:22.849Z,6.40
2023-05-14T14:46:49.855Z,10.80
2023-05-14T14:49:17.050Z,5.00
2023-05-14T14:51:44.260Z,8.40
2023-05-14T14:54:11.366Z,5.50
2023-05-14T14:56:39.253Z,7.00
2023-05-14T14:59:06.332Z,5.10
2023-05-14T15:01:33.570Z,5.20
2023-05-14T15:04:00.715Z,15.50
2023-05-14T15:06:28.067Z,10.70
2023-05-14T15:08:55.182Z,47.10
2023-05-14T15:11:22.469Z,5.90
2023-05-14T15:13:49.718Z,4.00
2023-05-14T15:16:17.040Z,10.60
2023-05-14T15:18:44.279Z,5.70
2023-05-14T15:21:11.509Z,7.50
2023-05-14T15:23:38.628Z,11.90
2023-05-14T15:26:05.960Z,6.90
2023-05-14T15:28:33.341Z,6.10
2023-05-14T15:31:02.519Z,6.70
2023-05-14T15:33:29.806Z,8.50
2023-05-14T15:35:56.944Z,6.30
2023-05-14T15:38:24.079Z,5.00
2023-05-14T15:40:51.343Z,5.80
2023-05-14T15:43:18.507Z,8.00
2023-05-14T15:45:46.241Z,8.20
2023-05-14T15:48:13.461Z,7.10
2023-05-14T15:50:40.791Z,9.30
2023-05-14T15:53:08.565Z,7.80
2023-05-14T15:55:35.783Z,11.60
2023-05-14T15:58:03.260Z,8.60
2023-05-14T16:00:30.410Z,5.60
2023-05-14T16:02:57.612Z,11.80
2023-05-14T16:05:24.825Z,6.90
2023-05-14T16:07:52.319Z,5.10
2023-05-14T16:10:21.270Z,21.60
2023-05-14T16:12:48.529Z,64.60
2023-05-14T16:15:15.995Z,20.40
2023-05-14T16:17:43.069Z,34.30
2023-05-14T16:20:11.162Z,22.60
2023-05-14T16:22:38.383Z,16.50
2023-05-14T16:25:05.991Z,14.70
2023-05-14T16:27:33.332Z,11.50
2023-05-14T16:30:00.556Z,12.10
2023-05-14T16:32:28.057Z,9.60
2023-05-14T16:34:56.507Z,7.60
2023-05-14T16:37:23.792Z,7.40
2023-05-14T16:39:50.939Z,11.50
2023-05-14T16:42:18.024Z,4.60
2023-05-14T16:44:45.146Z,9.50
2023-05-14T16:47:12.220Z,17.60
2023-05-14T16:49:39.388Z,11.10
2023-05-14T16:52:07.009Z,12.60
2023-05-14T16:54:34.104Z,10.20
2023-05-14T16:57:01.167Z,6.90
2023-05-14T16:59:28.263Z,8.20
2023-05-14T17:01:55.485Z,8.60
2023-05-14T17:04:25.019Z,8.00
2023-05-14T17:06:52.388Z,10.40
2023-05-14T17:09:19.638Z,19.80
2023-05-14T17:11:46.748Z,9.00
2023-05-14T17:14:13.678Z,10.80
2023-05-14T17:16:42.410Z,9.40
2023-05-14T17:19:09.502Z,8.40
2023-05-14T17:21:36.705Z,6.10
2023-05-14T17:24:03.940Z,9.30
2023-05-14T17:26:31.092Z,16.80
2023-05-14T17:28:58.212Z,23.80
2023-05-14T17:31:25.399Z,14.50
2023-05-14T17:33:52.533Z,14.20
2023-05-14T17:36:19.686Z,22.30
2023-05-14T17:38:46.835Z,18.50
2023-05-14T17:41:14.034Z,21.60
2023-05-14T17:43:41.151Z,27.00
2023-05-14T17:46:08.192Z,24.00
2023-05-14T17:48:35.273Z,23.20
2023-05-14T17:51:02.365Z,25.90
2023-05-14T17:53:29.445Z,28.90
2023-05-14T17:55:56.605Z,25.60
2023-05-14T17:58:25.195Z,28.00
2023-05-14T18:00:52.397Z,15.70
2023-05-14T18:03:20.485Z,21.90
2023-05-14T18:05:47.783Z,14.30
2023-05-14T18:08:15.210Z,16.60
2023-05-14T18:10:42.397Z,18.20
2023-05-14T18:13:09.492Z,15.20
2023-05-14T18:15:37.066Z,16.00
2023-05-14T18:18:04.767Z,18.00
2023-05-14T18:20:33.396Z,61.20
2023-05-14T18:23:02.228Z,95.50
2023-05-14T18:25:29.556Z,106.70
2023-05-14T18:27:56.668Z,109.20
2023-05-14T18:30:23.732Z,109.90
2023-05-14T18:32:51.071Z,107.10
2023-05-14T18:35:18.402Z,85.90
2023-05-14T18:37:46.119Z,80.10
2023-05-14T18:40:16.867Z,70.30
2023-05-14T18:42:45.558Z,94.20
2023-05-14T18:45:12.807Z,81.20
2023-05-14T18:47:40.125Z,114.90
2023-05-14T18:50:08.358Z,107.50
2023-05-14T18:52:35.465Z,112.90
2023-05-14T18:55:02.705Z,148.40
2023-05-14T18:57:32.244Z,131.90
2023-05-14T19:00:02.056Z,157.90
2023-05-14T19:02:29.253Z,130.40
2023-05-14T19:04:56.563Z,134.10
2023-05-14T19:07:23.653Z,123.50
2023-05-14T19:09:51.074Z,99.30
2023-05-14T19:12:18.181Z,78.10
2023-05-14T19:14:45.409Z,61.90
2023-05-14T19:17:12.555Z,55.40
2023-05-14T19:19:39.756Z,40.50
2023-05-14T19:22:07.157Z,41.00
2023-05-14T19:24:34.399Z,37.60
2023-05-14T19:27:01.621Z,39.10
2023-05-14T19:29:28.750Z,37.10
2023-05-14T19:31:56.128Z,34.20
2023-05-14T19:34:23.699Z,57.50
2023-05-14T19:36:50.984Z,54.00
2023-05-14T19:39:18.160Z,53.50
2023-05-14T19:41:45.362Z,57.80
2023-05-14T19:44:12.519Z,51.60
2023-05-14T19:46:39.690Z,53.40
2023-05-14T19:49:06.879Z,57.60
2023-05-14T19:51:33.973Z,42.90
2023-05-14T19:54:01.283Z,37.80
2023-05-14T19:56:28.511Z,26.70
2023-05-14T19:58:55.748Z,18.20
2023-05-14T20:01:23.105Z,20.50
2023-05-14T20:03:50.526Z,21.50
2023-05-14T20:06:18.555Z,19.20
2023-05-14T20:08:45.738Z,26.20
2023-05-14T20:11:12.833Z,19.40
2023-05-14T20:13:39.978Z,17.70
2023-05-14T20:16:07.252Z,16.00
2023-05-14T20:18:34.468Z,26.60
2023-05-14T20:21:01.775Z,28.00
2023-05-14T20:23:28.938Z,15.40
2023-05-14T20:25:56.277Z,19.40
2023-05-14T20:28:23.349Z,18.10
2023-05-14T20:30:50.384Z,18.60
2023-05-14T20:33:17.674Z,20.10
2023-05-14T20:35:44.962Z,23.60
2023-05-14T20:38:13.491Z,23.10
2023-05-14T20:40:40.892Z,18.80
2023-05-14T20:43:08.084Z,15.80
2023-05-14T20:45:35.335Z,16.10
2023-05-14T20:48:02.548Z,13.30
2023-05-14T20:50:29.723Z,10.10
2023-05-14T20:52:56.915Z,18.20
2023-05-14T20:55:24.371Z,9.60
2023-05-14T20:57:51.633Z,9.60
2023-05-14T21:00:19.438Z,13.50
2023-05-14T21:02:46.695Z,14.00
2023-05-14T21:05:14.188Z,10.80
2023-05-14T21:07:41.324Z,10.30
2023-05-14T21:10:09.499Z,17.80
2023-05-14T21:12:36.721Z,11.40
2023-05-14T21:15:04.056Z,14.30
2023-05-14T21:17:31.503Z,10.40
2023-05-14T21:19:58.703Z,14.90
2023-05-14T21:22:27.500Z,8.00
2023-05-14T21:24:56.138Z,13.60
2023-05-14T21:27:23.437Z,7.70
2023-05-14T21:29:50.659Z,6.70
2023-05-14T21:32:19.284Z,12.60
2023-05-14T21:34:46.331Z,10.10
2023-05-14T21:37:13.478Z,9.00
2023-05-14T21:39:40.990Z,12.30
2023-05-14T21:42:09.066Z,10.60
2023-05-14T21:44:36.211Z,6.50
2023-05-14T21:47:04.056Z,6.80
2023-05-14T21:49:31.178Z,9.40
2023-05-14T21:51:58.349Z,8.80
2023-05-14T21:54:25.474Z,6.60
2023-05-14T21:56:52.497Z,11.60
2023-05-14T21:59:19.855Z,8.30
2023-05-14T22:02:05.447Z,15.70
2023-05-14T22:04:33.839Z,8.70
2023-05-14T22:07:00.993Z,8.40
2023-05-14T22:09:28.067Z,6.10
2023-05-14T22:11:55.756Z,8.70
2023-05-14T22:14:22.928Z,12.50
2023-05-14T22:16:50.285Z,6.00
2023-05-14T22:19:17.659Z,5.10
2023-05-14T22:21:44.789Z,6.00
2023-05-14T22:24:11.777Z,7.50
2023-05-14T22:26:38.994Z,7.50
2023-05-14T22:29:06.110Z,9.60
2023-05-14T22:31:33.400Z,10.70
2023-05-14T22:34:00.587Z,10.30
2023-05-14T22:36:27.766Z,9.40
2023-05-14T22:38:55.187Z,9.50
2023-05-14T22:41:22.340Z,9.50
2023-05-14T22:43:49.623Z,8.80
2023-05-14T22:46:16.742Z,13.50
2023-05-14T22:48:44.965Z,45.10
2023-05-14T22:51:12.039Z,78.90
2023-05-14T22:53:39.132Z,55.60
2023-05-14T22:56:06.435Z,26.60
2023-05-14T22:58:33.646Z,19.20
2023-05-14T23:01:00.754Z,11.10
2023-05-14T23:03:28.040Z,10.00
2023-05-14T23:05:55.258Z,12.60
2023-05-14T23:08:22.311Z,8.20
2023-05-14T23:10:49.424Z,10.90
2023-05-14T23:13:16.682Z,6.10
2023-05-14T23:15:44.395Z,9.10
2023-05-14T23:18:11.708Z,11.30
2023-05-14T23:20:38.881Z,8.80
2023-05-14T23:23:06.517Z,16.60
2023-05-14T23:25:33.537Z,9.80
2023-05-14T23:28:00.791Z,19.20
2023-05-14T23:30:27.891Z,9.30
2023-05-14T23:32:55.052Z,7.20
2023-05-14T23:35:22.323Z,12.40
2023-05-14T23:37:51.022Z,9.10
2023-05-14T23:40:18.327Z,11.30
2023-05-14T23:42:45.559Z,13.90
2023-05-14T23:45:13.493Z,19.40
2023-05-14T23:47:41.311Z,11.00
2023-05-14T23:50:08.985Z,11.00
2023-05-14T23:52:36.062Z,6.80
2023-05-14T23:55:03.298Z,14.50
2023-05-14T23:57:30.629Z,14.00
2023-05-14T23:59:57.871Z,20.00
